createdAt,value
2018-12-03T00:02:24.737Z,4.90
2018-12-03T00:05:07.282Z,4.57
2018-12-03T00:07:50.531Z,5.17
2018-12-03T00:10:31.457Z,4.87
2018-12-03T00:13:12.111Z,4.53
2018-12-03T00:15:52.747Z,4.37
2018-12-03T00:18:33.516Z,4.50
2018-12-03T00:21:14.762Z,5.40
2018-12-03T00:23:55.895Z,4.80
2018-12-03T00:26:36.962Z,5.10
2018-12-03T00:29:18.222Z,4.80
2018-12-03T00:31:58.946Z,5.00
2018-12-03T00:34:39.475Z,4.67
2018-12-03T00:37:20.410Z,5.40
2018-12-03T00:40:01.342Z,5.60
2018-12-03T00:42:42.358Z,5.43
2018-12-03T00:45:23.238Z,5.20
2018-12-03T00:48:05.359Z,5.10
2018-12-03T00:50:46.098Z,4.70
2018-12-03T00:53:27.643Z,5.03
2018-12-03T00:56:08.670Z,4.37
2018-12-03T00:58:50.735Z,4.90
2018-12-03T01:01:35.137Z,4.83
2018-12-03T01:04:16.596Z,4.57
2018-12-03T01:06:57.167Z,4.97
2018-12-03T01:09:38.222Z,4.57
2018-12-03T01:12:19.193Z,4.50
2018-12-03T01:14:59.831Z,4.23
2018-12-03T01:17:40.654Z,4.10
2018-12-03T01:20:21.344Z,4.30
2018-12-03T01:23:01.818Z,4.53
2018-12-03T01:25:42.552Z,4.60
2018-12-03T01:28:24.277Z,4.77
2018-12-03T01:31:04.650Z,4.53
2018-12-03T01:33:45.530Z,4.40
2018-12-03T01:36:26.142Z,4.67
2018-12-03T01:39:06.993Z,4.30
2018-12-03T01:41:47.770Z,4.47
2018-12-03T01:44:28.245Z,5.07
2018-12-03T01:47:08.818Z,4.53
2018-12-03T01:49:49.347Z,4.73
2018-12-03T01:52:29.869Z,4.17
2018-12-03T01:55:11.033Z,4.37
2018-12-03T01:57:51.766Z,4.93
2018-12-03T02:00:32.512Z,4.47
2018-12-03T02:03:13.366Z,4.90
2018-12-03T02:05:54.227Z,4.10
2018-12-03T02:08:35.087Z,4.20
2018-12-03T02:11:16.187Z,4.70
2018-12-03T02:13:56.850Z,4.63
2018-12-03T02:16:37.887Z,4.47
2018-12-03T02:19:18.861Z,4.40
2018-12-03T02:21:59.590Z,4.73
2018-12-03T02:24:40.277Z,5.37
2018-12-03T02:27:21.356Z,4.33
2018-12-03T02:30:01.640Z,5.03
2018-12-03T02:32:42.387Z,4.37
2018-12-03T02:35:23.031Z,4.37
2018-12-03T02:38:03.766Z,4.30
2018-12-03T02:40:44.419Z,5.00
2018-12-03T02:43:24.695Z,4.70
2018-12-03T02:46:05.279Z,4.87
2018-12-03T02:48:46.363Z,4.07
2018-12-03T02:51:26.866Z,4.70
2018-12-03T02:54:07.850Z,5.10
2018-12-03T02:56:48.345Z,5.10
2018-12-03T02:59:29.606Z,5.00
2018-12-03T03:02:10.781Z,4.80
2018-12-03T03:04:51.774Z,5.23
2018-12-03T03:07:32.982Z,4.90
2018-12-03T03:10:13.849Z,4.73
2018-12-03T03:12:54.451Z,4.37
2018-12-03T03:15:35.768Z,4.70
2018-12-03T03:18:16.216Z,4.63
2018-12-03T03:20:57.231Z,4.30
2018-12-03T03:23:37.942Z,5.17
2018-12-03T03:26:18.729Z,4.43
2018-12-03T03:28:59.493Z,4.73
2018-12-03T03:31:40.589Z,4.77
2018-12-03T03:34:21.015Z,4.90
2018-12-03T03:37:01.844Z,5.03
2018-12-03T03:39:43.458Z,5.17
2018-12-03T03:42:23.955Z,4.97
2018-12-03T03:45:04.850Z,5.27
2018-12-03T03:47:45.991Z,5.63
2018-12-03T03:50:26.456Z,5.27
2018-12-03T03:53:07.546Z,5.43
2018-12-03T03:55:48.570Z,4.90
2018-12-03T03:58:28.974Z,5.37
2018-12-03T04:01:10.018Z,5.80
2018-12-03T04:03:51.262Z,5.00
2018-12-03T04:06:31.551Z,5.00
2018-12-03T04:09:12.235Z,5.40
2018-12-03T04:11:53.539Z,4.90
2018-12-03T04:14:34.370Z,5.13
2018-12-03T04:17:14.924Z,5.03
2018-12-03T04:19:55.239Z,4.90
2018-12-03T04:22:36.481Z,5.27
2018-12-03T04:25:17.256Z,5.50
2018-12-03T04:27:59.134Z,5.60
2018-12-03T04:30:40.199Z,5.07
2018-12-03T04:33:20.716Z,5.10
2018-12-03T04:36:01.526Z,5.43
2018-12-03T04:38:43.451Z,5.17
2018-12-03T04:41:24.211Z,5.30
2018-12-03T04:44:05.230Z,5.40
2018-12-03T04:46:45.660Z,5.00
2018-12-03T04:49:26.590Z,5.00
2018-12-03T04:52:06.942Z,5.53
2018-12-03T04:54:48.162Z,5.40
2018-12-03T04:57:29.542Z,5.47
2018-12-03T05:00:10.015Z,5.50
2018-12-03T05:02:50.782Z,5.83
2018-12-03T05:05:31.399Z,5.50
2018-12-03T05:08:12.204Z,5.53
2018-12-03T05:10:53.263Z,5.43
2018-12-03T05:13:34.510Z,5.40
2018-12-03T05:16:15.466Z,5.90
2018-12-03T05:18:56.475Z,5.80
2018-12-03T05:21:37.578Z,5.20
2018-12-03T05:24:18.151Z,5.43
2018-12-03T05:26:59.367Z,5.53
2018-12-03T05:29:40.341Z,5.53
2018-12-03T05:32:21.002Z,5.53
2018-12-03T05:35:01.747Z,5.27
2018-12-03T05:37:42.603Z,5.83
2018-12-03T05:40:23.427Z,5.43
2018-12-03T05:43:03.982Z,6.00
2018-12-03T05:45:46.040Z,6.00
2018-12-03T05:48:26.815Z,5.30
2018-12-03T05:51:07.518Z,5.17
2018-12-03T05:53:48.341Z,5.17
2018-12-03T05:56:29.204Z,4.73
2018-12-03T05:59:10.280Z,5.43
2018-12-03T06:01:50.978Z,4.53
2018-12-03T06:04:31.787Z,5.07
2018-12-03T06:07:12.744Z,5.03
2018-12-03T06:09:53.515Z,4.70
2018-12-03T06:12:34.136Z,4.43
2018-12-03T06:15:15.002Z,4.40
2018-12-03T06:17:55.627Z,4.90
2018-12-03T06:20:36.535Z,4.80
2018-12-03T06:23:19.490Z,5.03
2018-12-03T06:26:02.386Z,5.00
2018-12-03T06:28:44.462Z,4.93
2018-12-03T06:31:25.710Z,5.27
2018-12-03T06:34:06.433Z,4.97
2018-12-03T06:36:47.378Z,5.10
2018-12-03T06:39:28.975Z,5.00
2018-12-03T06:42:11.076Z,4.87
2018-12-03T06:44:52.634Z,4.87
2018-12-03T06:47:33.938Z,4.50
2018-12-03T06:50:15.274Z,5.33
2018-12-03T06:52:56.462Z,4.63
2018-12-03T06:55:37.234Z,4.60
2018-12-03T06:58:18.130Z,4.20
2018-12-03T07:00:58.870Z,3.97
2018-12-03T07:03:39.494Z,4.13
2018-12-03T07:06:20.403Z,3.90
2018-12-03T07:09:01.335Z,4.33
2018-12-03T07:11:42.278Z,4.10
2018-12-03T07:14:22.795Z,4.80
2018-12-03T07:17:03.660Z,4.17
2018-12-03T07:19:44.812Z,4.30
2018-12-03T07:22:25.460Z,4.87
2018-12-03T07:25:06.401Z,4.87
2018-12-03T07:27:46.947Z,4.87
2018-12-03T07:30:27.760Z,4.77
2018-12-03T07:33:08.626Z,4.93
2018-12-03T07:35:49.986Z,5.20
2018-12-03T07:38:32.113Z,5.37
2018-12-03T07:41:13.417Z,5.40
2018-12-03T07:43:54.680Z,5.70
2018-12-03T07:46:35.756Z,5.37
2018-12-03T07:49:16.663Z,5.50
2018-12-03T07:51:57.313Z,5.87
2018-12-03T07:54:37.855Z,6.60
2018-12-03T07:57:18.719Z,6.53
2018-12-03T08:00:00.082Z,5.80
2018-12-03T08:02:40.984Z,6.63
2018-12-03T08:05:21.951Z,6.67
2018-12-03T08:08:02.456Z,6.93
2018-12-03T08:10:42.832Z,6.73
2018-12-03T08:13:23.830Z,7.00
2018-12-03T08:16:04.466Z,6.80
2018-12-03T08:18:45.657Z,6.23
2018-12-03T08:21:26.942Z,6.87
2018-12-03T08:24:07.488Z,6.27
2018-12-03T08:26:48.041Z,5.97
2018-12-03T08:29:28.546Z,6.57
2018-12-03T08:32:09.767Z,5.80
2018-12-03T08:34:50.246Z,6.07
2018-12-03T08:37:30.850Z,5.77
2018-12-03T08:40:11.485Z,6.03
2018-12-03T08:42:51.971Z,6.27
2018-12-03T08:45:32.599Z,6.30
2018-12-03T08:48:13.116Z,6.60
2018-12-03T08:50:53.711Z,6.27
2018-12-03T08:53:34.232Z,6.87
2018-12-03T08:56:15.506Z,6.40
2018-12-03T08:58:56.092Z,6.60
2018-12-03T09:01:36.858Z,6.43
2018-12-03T09:04:19.028Z,6.80
2018-12-03T09:06:59.623Z,6.37
2018-12-03T09:09:40.255Z,6.43
2018-12-03T09:12:21.063Z,6.43
2018-12-03T09:15:04.631Z,6.57
2018-12-03T09:17:45.481Z,6.70
2018-12-03T09:20:26.410Z,5.83
2018-12-03T09:23:07.467Z,6.90
2018-12-03T09:25:48.266Z,6.67
2018-12-03T09:28:29.940Z,6.03
2018-12-03T09:31:12.999Z,6.57
2018-12-03T09:33:54.211Z,6.83
2018-12-03T09:36:34.851Z,6.17
2018-12-03T09:39:15.907Z,6.73
2018-12-03T09:41:57.082Z,6.67
2018-12-03T09:44:37.802Z,6.93
2018-12-03T09:47:18.457Z,6.20
2018-12-03T09:49:59.479Z,6.60
2018-12-03T09:52:40.725Z,6.23
2018-12-03T09:55:21.780Z,7.00
2018-12-03T09:58:02.737Z,6.80
2018-12-03T10:00:43.714Z,6.67
2018-12-03T10:03:24.485Z,5.70
2018-12-03T10:06:06.686Z,6.27
2018-12-03T10:08:47.642Z,5.77
2018-12-03T10:11:28.328Z,5.80
2018-12-03T10:14:14.890Z,5.80
2018-12-03T10:16:51.691Z,4.53
2018-12-03T10:19:32.754Z,4.43
2018-12-03T10:22:13.778Z,5.03
2018-12-03T10:24:54.976Z,4.50
2018-12-03T10:27:35.987Z,4.90
2018-12-03T10:30:16.526Z,4.43
2018-12-03T10:32:57.434Z,4.40
2018-12-03T10:35:38.515Z,4.63
2018-12-03T10:38:19.394Z,8.20
2018-12-03T10:41:00.376Z,5.10
2018-12-03T10:43:41.665Z,2.87
2018-12-03T10:46:22.710Z,2.90
2018-12-03T10:49:03.395Z,2.33
2018-12-03T10:51:44.091Z,2.10
2018-12-03T10:54:25.092Z,2.50
2018-12-03T10:57:05.542Z,2.20
2018-12-03T10:59:46.551Z,2.30
2018-12-03T11:02:33.906Z,2.50
2018-12-03T11:05:34.937Z,2.33
2018-12-03T11:08:17.688Z,2.20
2018-12-03T11:10:58.229Z,2.00
2018-12-03T11:13:39.453Z,2.10
2018-12-03T11:16:20.317Z,2.33
2018-12-03T11:19:01.288Z,2.17
2018-12-03T11:21:42.248Z,2.10
2018-12-03T11:24:24.076Z,2.10
2018-12-03T11:27:04.769Z,2.10
2018-12-03T11:29:45.218Z,2.27
2018-12-03T11:32:26.052Z,2.10
2018-12-03T11:35:06.774Z,1.90
2018-12-03T11:37:47.927Z,2.00
2018-12-03T11:40:28.307Z,1.87
2018-12-03T11:43:09.618Z,2.27
2018-12-03T11:45:50.971Z,2.00
2018-12-03T11:48:31.498Z,1.80
2018-12-03T11:51:12.595Z,1.93
2018-12-03T11:53:53.503Z,1.83
2018-12-03T11:56:33.966Z,1.90
2018-12-03T11:59:14.559Z,2.00
2018-12-03T12:01:55.471Z,2.10
2018-12-03T12:04:36.086Z,2.37
2018-12-03T12:07:16.951Z,2.40
2018-12-03T12:09:57.764Z,2.10
2018-12-03T12:12:41.712Z,2.20
2018-12-03T12:15:22.970Z,2.03
2018-12-03T12:18:03.520Z,2.10
2018-12-03T12:20:44.396Z,2.20
2018-12-03T12:23:25.107Z,2.27
2018-12-03T12:26:05.568Z,2.10
2018-12-03T12:28:46.918Z,2.30
2018-12-03T12:31:28.303Z,2.10
2018-12-03T12:34:09.036Z,2.20
2018-12-03T12:36:49.862Z,2.30
2018-12-03T12:39:30.533Z,2.20
2018-12-03T12:42:11.115Z,2.23
2018-12-03T12:44:52.027Z,2.43
2018-12-03T12:47:32.846Z,2.50
2018-12-03T12:50:13.607Z,2.77
2018-12-03T12:52:54.400Z,2.63
2018-12-03T12:55:34.922Z,2.70
2018-12-03T12:58:15.586Z,2.93
2018-12-03T13:00:56.051Z,3.10
2018-12-03T13:03:37.343Z,2.93
2018-12-03T13:06:18.684Z,2.90
2018-12-03T13:08:59.747Z,3.03
2018-12-03T13:11:40.493Z,3.07
2018-12-03T13:14:21.444Z,3.10
2018-12-03T13:17:02.599Z,3.00
2018-12-03T13:19:43.062Z,3.50
2018-12-03T13:22:23.966Z,3.30
2018-12-03T13:25:05.320Z,3.20
2018-12-03T13:27:46.056Z,3.30
2018-12-03T13:30:26.577Z,3.47
2018-12-03T13:33:07.678Z,3.80
2018-12-03T13:35:48.911Z,3.30
2018-12-03T13:38:29.754Z,3.50
2018-12-03T13:41:10.643Z,3.63
2018-12-03T13:43:51.255Z,3.90
2018-12-03T13:46:32.495Z,3.73
2018-12-03T13:49:13.180Z,3.90
2018-12-03T13:51:53.586Z,4.13
2018-12-03T13:54:34.138Z,3.90
2018-12-03T13:57:14.673Z,4.67
2018-12-03T13:59:55.174Z,4.30
2018-12-03T14:02:36.284Z,4.17
2018-12-03T14:05:17.168Z,4.90
2018-12-03T14:07:58.030Z,4.90
2018-12-03T14:10:38.861Z,5.23
2018-12-03T14:13:19.831Z,4.70
2018-12-03T14:16:00.631Z,5.50
2018-12-03T14:18:41.517Z,5.27
2018-12-03T14:21:22.464Z,5.70
2018-12-03T14:24:02.866Z,5.53
2018-12-03T14:26:43.532Z,5.50
2018-12-03T14:29:24.132Z,5.20
2018-12-03T14:32:05.043Z,5.43
2018-12-03T14:34:45.839Z,5.50
2018-12-03T14:37:29.331Z,5.20
2018-12-03T14:40:11.348Z,4.57
2018-12-03T14:42:54.005Z,4.73
2018-12-03T14:45:34.799Z,5.60
2018-12-03T14:48:16.019Z,6.00
2018-12-03T14:50:56.960Z,5.47
2018-12-03T14:53:37.678Z,5.57
2018-12-03T14:56:18.419Z,4.87
2018-12-03T14:58:59.070Z,5.27
2018-12-03T15:01:39.568Z,5.70
2018-12-03T15:04:20.347Z,5.57
2018-12-03T15:07:02.486Z,5.47
2018-12-03T15:09:46.111Z,5.10
2018-12-03T15:12:27.046Z,5.43
2018-12-03T15:15:07.716Z,5.47
2018-12-03T15:17:48.590Z,6.27
2018-12-03T15:20:29.327Z,5.87
2018-12-03T15:23:10.150Z,5.63
2018-12-03T15:25:52.533Z,5.47
2018-12-03T15:28:32.971Z,5.70
2018-12-03T15:31:13.883Z,5.80
2018-12-03T15:33:55.107Z,6.00
2018-12-03T15:36:36.057Z,5.60
2018-12-03T15:39:17.067Z,5.40
2018-12-03T15:41:58.228Z,4.80
2018-12-03T15:44:39.132Z,5.40
2018-12-03T15:47:19.980Z,6.00
2018-12-03T15:50:04.816Z,5.37
2018-12-03T15:52:50.096Z,5.53
2018-12-03T15:55:31.110Z,5.00
2018-12-03T15:58:12.024Z,5.03
2018-12-03T16:00:52.690Z,5.47
2018-12-03T16:03:38.949Z,5.10
2018-12-03T16:06:20.031Z,5.07
2018-12-03T16:09:01.302Z,5.10
2018-12-03T16:11:43.523Z,5.10
2018-12-03T16:14:24.120Z,4.87
2018-12-03T16:17:11.288Z,4.33
2018-12-03T16:19:52.435Z,5.37
2018-12-03T16:22:33.198Z,5.17
2018-12-03T16:25:13.694Z,4.93
2018-12-03T16:27:54.767Z,4.80
2018-12-03T16:30:35.582Z,5.17
2018-12-03T16:33:17.640Z,5.30
2018-12-03T16:35:58.512Z,5.73
2018-12-03T16:38:41.373Z,5.30
2018-12-03T16:41:22.483Z,5.77
2018-12-03T16:44:07.371Z,5.60
2018-12-03T16:46:51.216Z,5.77
2018-12-03T16:49:32.140Z,5.67
2018-12-03T16:52:15.971Z,5.10
2018-12-03T16:54:57.138Z,5.47
2018-12-03T16:57:37.767Z,5.37
2018-12-03T17:00:19.758Z,5.20
2018-12-03T17:03:00.509Z,5.43
2018-12-03T17:05:42.878Z,4.93
2018-12-03T17:08:28.642Z,5.83
2018-12-03T17:11:11.105Z,6.00
2018-12-03T17:13:52.473Z,5.90
2018-12-03T17:16:35.450Z,6.13
2018-12-03T17:19:18.280Z,5.27
2018-12-03T17:22:02.869Z,5.80
2018-12-03T17:24:43.888Z,5.73
2018-12-03T17:27:24.931Z,5.90
2018-12-03T17:30:07.508Z,5.83
2018-12-03T17:32:50.096Z,5.20
2018-12-03T17:35:33.111Z,6.07
2018-12-03T17:38:16.231Z,5.70
2018-12-03T17:41:02.143Z,5.53
2018-12-03T17:43:43.158Z,5.60
2018-12-03T17:46:25.777Z,5.83
2018-12-03T17:49:06.426Z,5.87
2018-12-03T17:51:52.761Z,5.77
2018-12-03T17:54:33.421Z,5.60
2018-12-03T17:57:13.955Z,6.37
2018-12-03T17:59:59.637Z,6.20
2018-12-03T18:02:41.673Z,5.77
2018-12-03T18:05:23.411Z,5.27
2018-12-03T18:08:04.144Z,5.47
2018-12-03T18:10:48.395Z,5.53
2018-12-03T18:13:32.459Z,6.00
2018-12-03T18:16:23.141Z,6.07
2018-12-03T18:19:07.770Z,5.60
2018-12-03T18:21:48.609Z,6.10
2018-12-03T18:24:35.728Z,6.63
2018-12-03T18:27:22.962Z,6.07
2018-12-03T18:30:05.267Z,6.03
2018-12-03T18:32:50.751Z,6.37
2018-12-03T18:35:31.919Z,6.10
2018-12-03T18:38:13.137Z,6.10
2018-12-03T18:40:56.963Z,6.03
2018-12-03T18:43:38.987Z,6.77
2018-12-03T18:46:20.419Z,5.63
2018-12-03T18:49:07.670Z,5.20
2018-12-03T18:51:52.571Z,5.40
2018-12-03T18:54:34.633Z,5.80
2018-12-03T18:57:24.126Z,5.90
2018-12-03T19:00:05.099Z,5.47
2018-12-03T19:02:48.960Z,5.07
2018-12-03T19:05:35.897Z,5.07
2018-12-03T19:08:17.757Z,4.83
2018-12-03T19:11:00.603Z,4.53
2018-12-03T19:13:43.196Z,5.33
2018-12-03T19:16:28.087Z,4.60
2018-12-03T19:22:29.904Z,4.80
2018-12-03T19:25:16.987Z,4.70
2018-12-03T19:28:00.461Z,4.40
2018-12-03T19:31:06.727Z,4.50
2018-12-03T19:33:52.076Z,4.50
2018-12-03T19:36:54.813Z,4.33
2018-12-03T19:39:38.165Z,4.70
2018-12-03T19:42:22.586Z,4.30
2018-12-03T19:45:05.552Z,4.37
2018-12-03T19:47:49.184Z,4.63
2018-12-03T19:50:34.419Z,4.57
2018-12-03T19:53:20.149Z,5.10
2018-12-03T19:56:02.997Z,4.70
2018-12-03T19:58:46.222Z,4.90
2018-12-03T20:01:30.428Z,5.23
2018-12-03T20:04:51.028Z,5.10
2018-12-03T20:07:32.169Z,7.97
2018-12-03T20:10:16.381Z,6.97
2018-12-03T20:18:59.107Z,6.87
2018-12-03T20:21:47.371Z,7.20
2018-12-03T20:24:30.203Z,7.00
2018-12-03T20:27:19.362Z,7.93
2018-12-03T20:30:00.616Z,9.30
2018-12-03T20:32:41.729Z,8.53
2018-12-03T20:35:25.855Z,7.37
2018-12-03T20:38:08.925Z,7.57
2018-12-03T20:44:30.138Z,5.23
2018-12-03T20:47:11.336Z,5.47
2018-12-03T20:49:58.750Z,5.53
2018-12-03T20:52:40.217Z,5.33
2018-12-03T20:55:20.511Z,5.60
2018-12-03T20:58:01.877Z,4.97
2018-12-03T21:00:43.348Z,4.93
2018-12-03T21:03:24.616Z,5.13
2018-12-03T21:06:12.066Z,4.93
2018-12-03T21:08:53.378Z,4.40
2018-12-03T21:11:34.929Z,4.87
2018-12-03T21:14:20.002Z,5.07
2018-12-03T21:17:02.415Z,5.20
2018-12-03T21:19:47.722Z,5.53
2018-12-03T21:22:28.724Z,5.53
2018-12-03T21:25:15.834Z,5.17
2018-12-03T21:28:01.507Z,5.07
2018-12-03T21:30:44.746Z,5.40
2018-12-03T21:33:30.041Z,5.10
2018-12-03T21:36:14.309Z,5.00
2018-12-03T21:38:55.188Z,4.77
2018-12-03T21:41:36.285Z,4.73
2018-12-03T21:44:17.745Z,5.53
2018-12-03T21:47:07.201Z,5.63
2018-12-03T21:49:51.009Z,5.10
2018-12-03T21:52:35.195Z,5.60
2018-12-03T21:55:16.682Z,5.77
2018-12-03T21:57:57.547Z,5.67
2018-12-03T22:00:43.226Z,5.13
2018-12-03T22:03:24.502Z,5.87
2018-12-03T22:06:07.007Z,5.50
2018-12-03T22:08:49.532Z,6.10
2018-12-03T22:11:30.928Z,5.53
2018-12-03T22:14:12.110Z,6.23
2018-12-03T22:16:52.648Z,6.30
2018-12-03T22:19:42.427Z,5.90
2018-12-03T22:22:26.116Z,5.67
2018-12-03T22:25:07.703Z,5.67
2018-12-03T22:27:52.996Z,5.50
2018-12-03T22:30:34.427Z,5.60
2018-12-03T22:33:15.139Z,6.23
2018-12-03T22:35:56.053Z,5.70
2018-12-03T22:38:37.450Z,5.90
2018-12-03T22:41:18.415Z,5.40
2018-12-03T22:43:59.449Z,6.17
2018-12-03T22:46:40.068Z,5.43
2018-12-03T22:49:24.470Z,5.13
2018-12-03T22:52:04.972Z,5.03
2018-12-03T22:54:46.132Z,5.50
2018-12-03T22:57:26.754Z,4.93
2018-12-03T23:00:10.035Z,4.93
2018-12-03T23:02:51.771Z,4.93
2018-12-03T23:05:32.481Z,5.07
2018-12-03T23:08:13.182Z,5.10
2018-12-03T23:10:53.691Z,5.23
2018-12-03T23:13:34.390Z,5.17
2018-12-03T23:16:15.307Z,4.73
2018-12-03T23:19:29.393Z,5.30
2018-12-03T23:21:57.331Z,5.50
2018-12-03T23:24:25.251Z,5.53
2018-12-03T23:26:53.477Z,6.10
2018-12-03T23:29:21.436Z,5.67
2018-12-03T23:31:49.343Z,6.20
2018-12-03T23:34:17.248Z,6.43
2018-12-03T23:36:45.141Z,6.17
2018-12-03T23:39:13.036Z,6.20
2018-12-03T23:41:40.953Z,5.30
2018-12-03T23:44:08.856Z,6.23
2018-12-03T23:46:36.757Z,6.40
2018-12-03T23:49:04.676Z,5.40
2018-12-03T23:51:36.170Z,6.67
2018-12-03T23:54:02.493Z,5.37
2018-12-03T23:56:30.439Z,5.00
2018-12-03T23:58:58.367Z,5.30
